Time;durP1;ratioP1;P1;durP2;ratioP2;P2;SDS_P1;SDS_P2;PMS_P1;PMS_P2;Temp;Humidity;BMP_temperature;BMP_pressure;BME280_temperature;BME280_humidity;BME280_pressure;Samples;Min_cycle;Max_cycle;Signal;HPM_P1;HPM_P2
2020/12/05 00:01:55;;;;;;;15.38;7.43;;;;;;;1.81;100.00;98674.91;4996308;28;20033;-69
2020/12/05 00:04:20;;;;;;;14.05;7.25;;;;;;;1.80;100.00;98686.44;4992572;28;20034;-68
2020/12/05 00:06:45;;;;;;;13.35;7.45;;;;;;;1.79;100.00;98697.97;5014317;28;20030;-68
2020/12/05 00:09:11;;;;;;;15.48;7.50;;;;;;;1.75;100.00;98688.50;5011447;28;20092;-68
2020/12/05 00:11:37;;;;;;;13.95;7.65;;;;;;;1.72;100.00;98686.06;5009476;28;20040;-68
2020/12/05 00:14:03;;;;;;;15.30;7.60;;;;;;;1.67;100.00;98688.97;5018700;28;20452;-68
2020/12/05 00:16:29;;;;;;;13.88;7.47;;;;;;;1.63;100.00;98683.03;4992894;28;20085;-68
2020/12/05 00:18:54;;;;;;;16.42;7.88;;;;;;;1.59;100.00;98685.97;5007147;28;20030;-68
2020/12/05 00:21:24;;;;;;;15.00;9.10;;;;;;;1.57;100.00;98693.97;5012312;28;20072;-68
2020/12/05 00:23:50;;;;;;;15.70;8.13;;;;;;;1.56;100.00;98691.41;4991810;28;20065;-69
2020/12/05 00:26:20;;;;;;;18.40;8.20;;;;;;;1.52;100.00;98685.47;5009828;28;20034;-69
2020/12/05 00:28:46;;;;;;;15.77;8.52;;;;;;;1.49;100.00;98695.38;4991887;28;20502;-68
2020/12/05 00:31:12;;;;;;;16.02;8.20;;;;;;;1.48;100.00;98702.44;5006412;28;20042;-68
2020/12/05 00:33:39;;;;;;;16.55;8.23;;;;;;;1.49;100.00;98690.06;5011919;28;20075;-69
2020/12/05 00:36:04;;;;;;;16.52;8.50;;;;;;;1.56;100.00;98680.84;5011566;28;20030;-68
2020/12/05 00:38:30;;;;;;;16.50;8.27;;;;;;;1.50;100.00;98675.91;5020132;23;20430;-76
2020/12/05 00:40:55;;;;;;;15.52;8.55;;;;;;;1.46;100.00;98691.13;4987571;28;20140;-76
2020/12/05 00:43:21;;;;;;;15.90;7.65;;;;;;;1.47;100.00;98698.13;5012684;28;20039;-77
2020/12/05 00:45:47;;;;;;;19.00;9.60;;;;;;;1.48;100.00;98702.44;5006848;28;20408;-75
2020/12/05 00:48:14;;;;;;;18.30;8.68;;;;;;;1.46;100.00;98696.41;5007130;28;20024;-76
2020/12/05 00:50:39;;;;;;;18.98;10.45;;;;;;;1.45;100.00;98694.72;5006054;28;20037;-76
2020/12/05 00:53:05;;;;;;;17.77;8.55;;;;;;;1.46;100.00;98696.41;4993199;28;20168;-76
2020/12/05 00:55:31;;;;;;;18.95;9.35;;;;;;;1.46;100.00;98696.41;5013422;28;20121;-76
2020/12/05 00:57:56;;;;;;;15.32;8.23;;;;;;;1.48;100.00;98697.16;5006906;28;20415;-75
2020/12/05 01:00:22;;;;;;;14.77;9.23;;;;;;;1.42;100.00;98689.59;5006112;28;20041;-77
2020/12/05 01:02:48;;;;;;;16.13;8.50;;;;;;;1.42;100.00;98688.78;5007917;28;20045;-75
2020/12/05 01:05:14;;;;;;;17.58;8.27;;;;;;;1.40;100.00;98686.22;5012059;28;20037;-77
2020/12/05 01:07:39;;;;;;;14.25;7.82;;;;;;;1.43;100.00;98691.31;5006137;28;20030;-77
2020/12/05 01:10:05;;;;;;;18.42;7.40;;;;;;;1.43;100.00;98688.66;5004937;28;20041;-76
2020/12/05 01:12:31;;;;;;;15.65;8.30;;;;;;;1.45;100.00;98700.00;5013125;28;20052;-76
2020/12/05 01:15:01;;;;;;;13.10;8.43;;;;;;;1.47;100.00;98702.56;4988888;28;20520;-75
2020/12/05 01:17:28;;;;;;;17.17;9.40;;;;;;;1.50;100.00;98700.56;5007514;28;20064;-75
2020/12/05 01:19:56;;;;;;;19.38;9.70;;;;;;;1.49;100.00;98701.50;5008756;28;20398;-77
2020/12/05 01:22:24;;;;;;;23.77;9.07;;;;;;;1.50;100.00;98708.50;5005379;28;20065;-76
2020/12/05 01:24:51;;;;;;;17.17;8.32;;;;;;;1.49;100.00;98706.78;5008657;28;20315;-76
2020/12/05 01:27:16;;;;;;;15.73;9.07;;;;;;;1.48;100.00;98705.09;5009545;28;20033;-75
2020/12/05 01:29:43;;;;;;;14.43;8.07;;;;;;;1.49;100.00;98709.44;5018217;28;20040;-76
2020/12/05 01:32:08;;;;;;;13.77;8.15;;;;;;;1.46;100.00;98699.06;4993771;28;20136;-76
2020/12/05 01:34:34;;;;;;;13.65;8.00;;;;;;;1.45;100.00;98713.22;4992339;28;20043;-76
2020/12/05 01:36:59;;;;;;;19.92;8.18;;;;;;;1.46;100.00;98717.56;5024805;28;20041;-77
2020/12/05 01:39:25;;;;;;;16.05;8.35;;;;;;;1.42;100.00;98718.66;5008093;28;20112;-76
2020/12/05 01:41:51;;;;;;;15.55;8.77;;;;;;;1.41;100.00;98724.06;5006979;28;20033;-76
2020/12/05 01:44:17;;;;;;;15.93;8.18;;;;;;;1.38;100.00;98719.78;5005743;28;20092;-76
2020/12/05 01:46:43;;;;;;;13.13;7.82;;;;;;;1.38;100.00;98714.50;5010886;28;20548;-76
2020/12/05 01:49:14;;;;;;;16.10;7.63;;;;;;;1.39;100.00;98726.78;4996075;28;20033;-76
2020/12/05 01:51:40;;;;;;;16.73;7.80;;;;;;;1.37;100.00;98727.81;5006199;28;20117;-76
2020/12/05 01:54:07;;;;;;;18.67;8.18;;;;;;;1.37;100.00;98731.31;5008665;28;20128;-75
2020/12/05 01:56:33;;;;;;;14.55;8.80;;;;;;;1.34;100.00;98730.66;5020908;28;20040;-75
2020/12/05 01:58:59;;;;;;;17.67;8.60;;;;;;;1.35;100.00;98735.00;5013827;28;20026;-76
2020/12/05 02:01:26;;;;;;;12.48;7.80;;;;;;;1.34;100.00;98749.16;5007714;28;20074;-76
2020/12/05 02:03:56;;;;;;;17.05;8.75;;;;;;;1.32;100.00;98743.94;4993247;28;20133;-76
2020/12/05 02:06:31;;;;;;;19.75;8.68;;;;;;;1.32;100.00;98749.22;4992992;28;20442;-77
2020/12/05 02:09:08;;;;;;;15.27;8.57;;;;;;;1.31;100.00;98744.88;5006089;28;20071;-77
2020/12/05 02:11:40;;;;;;;13.40;7.43;;;;;;;1.32;100.00;98741.31;5007780;28;20125;-75
2020/12/05 02:14:09;;;;;;;13.45;8.32;;;;;;;1.32;100.00;98751.88;5011847;28;20061;-75
2020/12/05 02:16:35;;;;;;;20.80;8.88;;;;;;;1.32;100.00;98748.38;4991114;28;20112;-76
2020/12/05 02:19:04;;;;;;;18.20;8.80;;;;;;;1.33;100.00;98748.28;5003952;28;20511;-77
2020/12/05 02:21:32;;;;;;;17.20;8.48;;;;;;;1.29;100.00;98752.06;5013275;28;20041;-76
2020/12/05 02:23:58;;;;;;;12.63;8.20;;;;;;;1.23;100.00;98752.41;5026206;28;20061;-76
2020/12/05 02:26:26;;;;;;;20.55;8.05;;;;;;;1.23;100.00;98745.31;4993743;28;20033;-76
2020/12/05 02:28:51;;;;;;;15.93;8.15;;;;;;;1.24;100.00;98751.44;5006056;28;20041;-76
2020/12/05 02:31:17;;;;;;;22.35;8.73;;;;;;;1.25;100.00;98750.53;5006926;28;20038;-77
2020/12/05 02:33:42;;;;;;;15.27;8.02;;;;;;;1.26;100.00;98761.94;5007716;28;20065;-76
2020/12/05 02:36:11;;;;;;;16.50;8.98;;;;;;;1.26;100.00;98768.09;4990165;28;20033;-77
2020/12/05 02:39:00;;;;;;;19.63;9.18;;;;;;;1.27;100.00;98759.22;4991296;28;20108;-77
2020/12/05 02:41:27;;;;;;;13.55;7.72;;;;;;;1.29;100.00;98778.50;5023774;28;20042;-76
2020/12/05 02:43:56;;;;;;;18.00;9.20;;;;;;;1.29;100.00;98775.84;5010097;28;20128;-76
2020/12/05 02:46:22;;;;;;;12.02;8.18;;;;;;;1.30;100.00;98777.53;5011534;28;20029;-76
2020/12/05 02:48:47;;;;;;;17.80;8.70;;;;;;;1.30;100.00;98769.59;5003188;28;20530;-76
2020/12/05 02:51:13;;;;;;;13.57;7.70;;;;;;;1.31;100.00;98765.16;5007717;28;20523;-76
2020/12/05 02:53:38;;;;;;;17.50;8.35;;;;;;;1.32;100.00;98761.59;5006155;28;20045;-76
2020/12/05 02:56:04;;;;;;;14.75;8.02;;;;;;;1.33;100.00;98764.16;4992330;28;20494;-76
2020/12/05 02:58:29;;;;;;;17.60;8.27;;;;;;;1.32;100.00;98762.44;4993782;28;20484;-76
2020/12/05 03:00:55;;;;;;;12.73;7.82;;;;;;;1.32;100.00;98762.44;4998330;28;20037;-76
2020/12/05 03:03:20;;;;;;;17.63;7.80;;;;;;;1.30;100.00;98763.50;5007130;28;20045;-76
2020/12/05 03:05:46;;;;;;;16.67;9.23;;;;;;;1.27;100.00;98759.22;4999367;28;20034;-76
2020/12/05 03:08:11;;;;;;;12.40;7.93;;;;;;;1.26;100.00;98761.94;4987449;28;20021;-77
2020/12/05 03:10:37;;;;;;;14.02;8.40;;;;;;;1.27;100.00;98758.38;5022803;28;20458;-76
2020/12/05 03:13:02;;;;;;;13.77;7.70;;;;;;;1.24;100.00;98759.38;5001378;28;20042;-76
2020/12/05 03:15:28;;;;;;;14.60;7.78;;;;;;;1.25;100.00;98755.81;5010237;28;20120;-77
2020/12/05 03:17:53;;;;;;;14.48;8.13;;;;;;;1.21;100.00;98752.50;5006813;28;20077;-77
2020/12/05 03:20:22;;;;;;;15.88;8.60;;;;;;;1.21;100.00;98754.28;5004382;28;20132;-76
2020/12/05 03:22:47;;;;;;;12.70;7.60;;;;;;;1.18;100.00;98757.09;5001532;28;20427;-77
2020/12/05 03:25:13;;;;;;;16.38;8.77;;;;;;;1.18;100.00;98755.31;5007874;28;20095;-76
2020/12/05 03:27:38;;;;;;;14.60;8.05;;;;;;;1.17;100.00;98760.69;5010202;28;20041;-75
2020/12/05 03:30:04;;;;;;;17.63;8.55;;;;;;;1.16;100.00;98766.91;5017105;28;20416;-77
2020/12/05 03:32:33;;;;;;;11.48;7.13;;;;;;;1.15;100.00;98771.34;4995824;28;20398;-75
2020/12/05 03:34:58;;;;;;;17.38;8.50;;;;;;;1.14;100.00;98774.06;5027919;28;20123;-76
2020/12/05 03:37:25;;;;;;;20.52;9.00;;;;;;;1.08;100.00;98779.69;5014268;28;20057;-76
2020/12/05 03:39:51;;;;;;;15.95;7.85;;;;;;;1.08;100.00;98787.63;4991719;28;20033;-76
2020/12/05 03:42:18;;;;;;;13.77;8.10;;;;;;;1.07;100.00;98791.19;5025592;28;20148;-76
2020/12/05 03:44:43;;;;;;;13.73;8.57;;;;;;;1.09;100.00;98797.25;4998032;28;20120;-76
2020/12/05 03:47:09;;;;;;;14.48;8.13;;;;;;;1.11;100.00;98795.41;5006198;28;20099;-76
2020/12/05 03:49:34;;;;;;;15.10;8.25;;;;;;;1.12;100.00;98794.44;5015286;28;20328;-75
2020/12/05 03:52:01;;;;;;;14.93;8.75;;;;;;;1.14;100.00;98803.13;5006864;28;20492;-76
2020/12/05 03:54:26;;;;;;;16.65;9.23;;;;;;;1.15;100.00;98805.69;5006360;28;20045;-77
2020/12/05 03:56:52;;;;;;;15.57;9.20;;;;;;;1.16;100.00;98803.91;5002724;28;20082;-75
2020/12/05 03:59:17;;;;;;;18.70;9.15;;;;;;;1.16;100.00;98810.03;4998136;28;20388;-75
2020/12/05 04:01:43;;;;;;;16.80;9.05;;;;;;;1.16;100.00;98814.47;5008347;28;20041;-76
2020/12/05 04:04:08;;;;;;;17.60;9.32;;;;;;;1.20;100.00;98816.00;5009879;28;20029;-76
2020/12/05 04:06:34;;;;;;;15.77;8.52;;;;;;;1.18;100.00;98823.16;5015950;28;20040;-75
2020/12/05 04:08:59;;;;;;;13.75;8.43;;;;;;;1.10;100.00;98817.47;5007108;28;20029;-76
2020/12/05 04:11:25;;;;;;;15.10;8.60;;;;;;;1.06;100.00;98829.13;5021545;28;20044;-76
2020/12/05 04:13:50;;;;;;;17.95;8.98;;;;;;;1.06;100.00;98822.06;5034055;28;20148;-75
2020/12/05 04:16:16;;;;;;;21.65;9.27;;;;;;;1.06;100.00;98829.13;5014043;28;20116;-75
2020/12/05 04:18:41;;;;;;;17.55;8.43;;;;;;;1.05;100.00;98822.16;5017581;28;20306;-76
2020/12/05 04:21:07;;;;;;;15.57;8.50;;;;;;;1.04;100.00;98829.22;5005143;28;20037;-76
2020/12/05 04:23:32;;;;;;;18.33;8.07;;;;;;;1.02;100.00;98822.31;5013273;28;20037;-75
2020/12/05 04:25:58;;;;;;;12.55;7.88;;;;;;;1.03;100.00;98831.94;4995799;28;20407;-75
2020/12/05 04:28:23;;;;;;;13.57;8.10;;;;;;;1.02;100.00;98831.09;5007091;28;20040;-78
2020/12/05 04:30:49;;;;;;;17.15;9.00;;;;;;;1.01;100.00;98828.53;4988593;28;20052;-77
2020/12/05 04:33:17;;;;;;;16.02;8.80;;;;;;;0.99;100.00;98833.06;4996900;28;20039;-76
2020/12/05 04:35:43;;;;;;;15.57;8.38;;;;;;;0.96;100.00;98830.56;5018589;28;20041;-75
2020/12/05 04:38:08;;;;;;;16.40;8.85;;;;;;;0.93;100.00;98836.00;5008633;28;20321;-75
2020/12/05 04:40:34;;;;;;;13.88;8.52;;;;;;;0.91;100.00;98830.00;5021770;28;20060;-77
2020/12/05 04:43:01;;;;;;;17.85;8.88;;;;;;;0.92;100.00;98831.69;5010938;28;20079;-77
2020/12/05 04:45:28;;;;;;;17.83;8.98;;;;;;;0.92;100.00;98836.97;5025320;28;20037;-77
2020/12/05 04:47:55;;;;;;;20.55;10.07;;;;;;;0.91;100.00;98827.34;5006403;28;20033;-77
2020/12/05 04:50:23;;;;;;;16.50;9.52;;;;;;;0.92;100.00;98829.91;5008680;28;20034;-78
2020/12/05 04:52:51;;;;;;;17.90;8.93;;;;;;;0.93;100.00;98841.28;5014777;28;20500;-77
2020/12/05 04:55:21;;;;;;;27.35;9.18;;;;;;;0.92;100.00;98847.53;5001304;28;20024;-77
2020/12/05 04:57:55;;;;;;;15.70;8.77;;;;;;;0.92;100.00;98848.41;5008119;28;20175;-78
2020/12/05 05:00:20;;;;;;;18.52;9.73;;;;;;;0.91;100.00;98851.13;5009435;28;20123;-77
2020/12/05 05:02:46;;;;;;;21.05;9.85;;;;;;;0.91;100.00;98859.03;4991983;28;20177;-77
2020/12/05 05:05:13;;;;;;;17.73;10.00;;;;;;;0.89;100.00;98858.25;5006765;28;20076;-76
2020/12/05 05:07:50;;;;;;;22.17;10.18;;;;;;;0.89;100.00;98853.81;4994955;28;20037;-77
2020/12/05 05:10:25;;;;;;;16.20;9.85;;;;;;;0.88;100.00;98857.41;5036106;28;20064;-78
2020/12/05 05:12:52;;;;;;;18.90;9.73;;;;;;;0.86;100.00;98867.22;5007016;28;20041;-76
2020/12/05 05:15:31;;;;;;;20.63;10.10;;;;;;;0.85;100.00;98860.22;4991337;28;20432;-76
2020/12/05 05:18:02;;;;;;;20.15;10.27;;;;;;;0.82;100.00;98861.22;5013206;28;20599;-76
2020/12/05 05:20:30;;;;;;;22.65;9.98;;;;;;;0.80;100.00;98871.00;5010507;28;20037;-75
2020/12/05 05:23:15;;;;;;;19.77;9.55;;;;;;;0.78;100.00;98867.63;5013988;28;20438;-77
2020/12/05 05:25:57;;;;;;;19.70;9.60;;;;;;;0.73;100.00;98860.91;5005918;28;20124;-78
2020/12/05 05:28:32;;;;;;;20.00;9.98;;;;;;;0.72;100.00;98852.13;5015844;28;20021;-77
2020/12/05 05:31:50;;;;;;;20.65;10.05;;;;;;;0.71;100.00;98855.69;5002931;28;20045;-77
2020/12/05 05:33:55;;;;;;;17.98;9.93;;;;;;;0.69;100.00;98854.91;5007787;28;20045;-77
2020/12/05 05:36:26;;;;;;;25.95;10.48;;;;;;;0.69;100.00;98876.03;5017059;28;20403;-77
2020/12/05 05:39:03;;;;;;;21.40;10.98;;;;;;;0.69;100.00;98873.38;4993497;28;20040;-76
2020/12/05 05:41:30;;;;;;;21.63;11.18;;;;;;;0.69;100.00;98883.94;5019948;28;20036;-77
2020/12/05 05:44:19;;;;;;;26.33;11.80;;;;;;;0.69;100.00;98889.22;5025645;28;20026;-76
2020/12/05 05:46:48;;;;;;;23.20;10.98;;;;;;;0.66;100.00;98897.31;4988145;28;20041;-77
2020/12/05 05:49:29;;;;;;;21.10;11.35;;;;;;;0.66;100.00;98894.69;5006586;28;20575;-77
2020/12/05 05:51:56;;;;;;;26.52;12.18;;;;;;;0.67;100.00;98906.97;5024806;28;20048;-77
2020/12/05 05:54:28;;;;;;;25.13;12.73;;;;;;;0.62;100.00;98906.31;5011591;28;20112;-77
2020/12/05 05:57:11;;;;;;;31.73;12.38;;;;;;;0.61;100.00;98917.84;5009619;28;20124;-76
2020/12/05 05:59:38;;;;;;;26.83;12.13;;;;;;;0.59;100.00;98916.19;5006691;28;20036;-77
2020/12/05 06:02:06;;;;;;;24.35;12.38;;;;;;;0.56;100.00;98930.41;4991652;28;20205;-77
2020/12/05 06:04:33;;;;;;;18.92;10.80;;;;;;;0.56;100.00;98930.41;5033076;28;20033;-76
2020/12/05 06:07:00;;;;;;;26.42;12.38;;;;;;;0.54;100.00;98927.00;5022509;28;20073;-76
2020/12/05 06:09:41;;;;;;;25.55;11.55;;;;;;;0.51;100.00;98927.16;5028431;28;20021;-76
2020/12/05 06:12:09;;;;;;;25.85;12.40;;;;;;;0.46;100.00;98928.34;5000122;28;20108;-76
2020/12/05 06:14:36;;;;;;;22.40;10.80;;;;;;;0.44;100.00;98930.19;5024998;28;20378;-75
2020/12/05 06:17:06;;;;;;;23.95;11.07;;;;;;;0.43;100.00;98934.63;5007839;28;20139;-77
2020/12/05 06:19:32;;;;;;;21.80;11.40;;;;;;;0.43;100.00;98942.56;5004556;28;20060;-77
2020/12/05 06:21:58;;;;;;;25.30;11.38;;;;;;;0.43;100.00;98954.91;4994664;28;20083;-77
2020/12/05 06:24:39;;;;;;;20.35;10.98;;;;;;;0.43;100.00;98958.41;4985730;28;20029;-77
2020/12/05 06:27:08;;;;;;;27.45;11.90;;;;;;;0.46;100.00;98960.00;5002978;28;20041;-76
2020/12/05 06:29:36;;;;;;;26.25;12.15;;;;;;;0.43;100.00;98971.59;5006064;28;20037;-77
2020/12/05 06:32:01;;;;;;;24.98;11.77;;;;;;;0.42;100.00;98977.78;5006435;28;20060;-76
2020/12/05 06:34:36;;;;;;;20.15;11.63;;;;;;;0.40;100.00;98977.00;4995843;28;20480;-76
2020/12/05 06:37:06;;;;;;;31.20;13.73;;;;;;;0.40;100.00;98982.28;5013141;28;20041;-76
2020/12/05 06:39:31;;;;;;;24.88;11.48;;;;;;;0.38;100.00;98994.69;4997870;28;20029;-77
2020/12/05 06:41:57;;;;;;;30.15;12.70;;;;;;;0.37;100.00;98996.47;5026636;28;20033;-75
2020/12/05 06:44:32;;;;;;;26.88;13.63;;;;;;;0.35;100.00;99000.13;5021909;28;20100;-77
2020/12/05 06:46:59;;;;;;;28.58;13.23;;;;;;;0.31;100.00;99011.75;5014709;28;20554;-76
2020/12/05 06:49:39;;;;;;;24.98;13.27;;;;;;;0.27;100.00;99007.56;5019678;28;20029;-76
2020/12/05 06:52:24;;;;;;;25.98;12.38;;;;;;;0.27;100.00;99018.13;5018402;28;20548;-76
2020/12/05 06:54:53;;;;;;;32.13;13.65;;;;;;;0.24;100.00;99021.78;5003785;28;20480;-75
2020/12/05 06:57:30;;;;;;;29.83;12.65;;;;;;;0.24;100.00;99015.66;5012985;28;20120;-76
2020/12/05 07:00:25;;;;;;;24.38;13.13;;;;;;;0.23;100.00;99027.13;5006000;28;20476;-76
2020/12/05 07:03:03;;;;;;;23.42;11.75;;;;;;;0.22;100.00;99033.34;4993788;28;20057;-77
2020/12/05 07:05:31;;;;;;;28.90;12.77;;;;;;;0.25;100.00;99036.66;5006368;28;20030;-76
2020/12/05 07:07:59;;;;;;;27.00;13.15;;;;;;;0.24;100.00;99040.25;5006720;28;20037;-77
2020/12/05 07:10:48;;;;;;;29.55;12.88;;;;;;;0.24;100.00;99055.22;5006926;28;20040;-76
2020/12/05 07:13:19;;;;;;;26.75;12.75;;;;;;;0.24;100.00;99047.31;5017475;28;20033;-75
2020/12/05 07:15:45;;;;;;;30.20;12.68;;;;;;;0.22;100.00;99051.81;5017010;28;20044;-76
2020/12/05 07:18:19;;;;;;;25.40;12.45;;;;;;;0.24;100.00;99055.22;4997006;28;20567;-77
2020/12/05 07:20:45;;;;;;;36.85;14.05;;;;;;;0.22;100.00;99063.22;4992614;28;20064;-76
2020/12/05 07:23:11;;;;;;;30.38;14.10;;;;;;;0.23;100.00;99061.44;5010535;28;20047;-76
2020/12/05 07:25:37;;;;;;;36.05;14.90;;;;;;;0.26;100.00;99063.91;5010143;28;20040;-76
2020/12/05 07:28:02;;;;;;;37.70;16.05;;;;;;;0.27;100.00;99078.81;5003089;28;20041;-77
2020/12/05 07:30:28;;;;;;;37.90;16.60;;;;;;;0.29;100.00;99076.97;5004432;28;20041;-76
2020/12/05 07:32:53;;;;;;;39.90;16.83;;;;;;;0.31;100.00;99072.44;5008840;28;20100;-77
2020/12/05 07:35:19;;;;;;;39.08;16.55;;;;;;;0.32;100.00;99068.88;5007514;28;20395;-76
2020/12/05 07:37:47;;;;;;;37.35;14.57;;;;;;;0.37;100.00;99080.09;5022205;28;20094;-77
2020/12/05 07:40:13;;;;;;;36.80;13.70;;;;;;;0.44;100.00;99078.84;5007828;28;20044;-76
2020/12/05 07:42:42;;;;;;;27.60;12.65;;;;;;;0.50;100.00;99089.09;5007798;28;20042;-76
2020/12/05 07:45:12;;;;;;;35.20;14.57;;;;;;;0.62;100.00;99093.75;5006803;28;20454;-76
2020/12/05 07:47:39;;;;;;;42.50;14.88;;;;;;;0.65;100.00;99090.13;5014925;28;20033;-77
2020/12/05 07:50:08;;;;;;;40.15;14.00;;;;;;;0.74;100.00;99093.16;5003456;28;20041;-75
2020/12/05 07:52:36;;;;;;;32.35;14.02;;;;;;;0.84;100.00;99108.53;5005683;28;20476;-76
2020/12/05 07:55:05;;;;;;;28.50;13.43;;;;;;;0.88;100.00;99107.44;5008208;28;20389;-76
2020/12/05 07:57:32;;;;;;;68.88;26.40;;;;;;;0.86;100.00;99110.19;5004456;28;20036;-77
2020/12/05 08:00:12;;;;;;;42.80;18.25;;;;;;;0.97;100.00;99120.19;5005737;28;20247;-75
2020/12/05 08:03:12;;;;;;;32.67;14.88;;;;;;;1.02;100.00;99132.22;5014249;28;20085;-76
2020/12/05 08:05:53;;;;;;;37.08;15.40;;;;;;;1.14;100.00;99141.31;5011556;28;20121;-75
2020/12/05 08:08:19;;;;;;;41.75;14.45;;;;;;;1.17;100.00;99143.81;5006576;28;20087;-75
2020/12/05 08:10:46;;;;;;;35.45;14.13;;;;;;;1.23;100.00;99142.66;5011067;28;20103;-77
2020/12/05 08:13:26;;;;;;;38.83;13.90;;;;;;;1.33;100.00;99139.44;5016117;28;20147;-77
2020/12/05 08:16:05;;;;;;;36.28;14.15;;;;;;;1.39;100.00;99139.13;5007653;28;20034;-76
2020/12/05 08:18:36;;;;;;;30.13;14.10;;;;;;;1.42;100.00;99138.94;5010769;28;20069;-76
2020/12/05 08:21:05;;;;;;;33.33;15.18;;;;;;;1.43;100.00;99151.22;5009456;28;20036;-78
2020/12/05 08:23:40;;;;;;;30.95;14.23;;;;;;;1.42;100.00;99154.81;5007383;28;20029;-79
2020/12/05 08:26:07;;;;;;;28.95;13.40;;;;;;;1.46;100.00;99161.66;5029297;28;20033;-79
2020/12/05 08:28:38;;;;;;;33.30;13.95;;;;;;;1.61;100.00;99171.41;5010518;28;20054;-79
2020/12/05 08:31:06;;;;;;;31.40;14.10;;;;;;;1.77;100.00;99194.44;5002302;28;20099;-77
2020/12/05 08:33:42;;;;;;;30.58;13.80;;;;;;;2.01;100.00;99185.19;5004377;28;20021;-77
2020/12/05 08:36:35;;;;;;;38.17;16.38;;;;;;;2.06;100.00;99180.50;5013377;28;20033;-77
2020/12/05 08:39:07;;;;;;;34.72;13.90;;;;;;;2.11;100.00;99185.53;5006246;28;20045;-77
2020/12/05 08:41:46;;;;;;;33.07;14.27;;;;;;;2.14;100.00;99195.97;5023900;28;20388;-78
2020/12/05 08:44:14;;;;;;;32.88;13.93;;;;;;;2.12;100.00;99196.03;5012908;28;20486;-77
2020/12/05 08:46:40;;;;;;;34.47;15.68;;;;;;;2.02;100.00;99192.19;5006339;28;20472;-76
2020/12/05 08:49:17;;;;;;;31.25;14.73;;;;;;;2.01;100.00;99193.13;5010928;28;20078;-76
2020/12/05 08:51:46;;;;;;;31.52;15.45;;;;;;;2.11;100.00;99202.25;5010599;28;20045;-76
2020/12/05 08:54:12;;;;;;;35.55;16.20;;;;;;;2.13;100.00;99195.09;5026017;28;20037;-77
2020/12/05 08:56:38;;;;;;;31.45;15.25;;;;;;;2.28;100.00;99212.81;4993420;28;20144;-76
2020/12/05 08:59:04;;;;;;;29.42;15.82;;;;;;;2.27;100.00;99213.75;5000074;28;20615;-76
2020/12/05 09:01:55;;;;;;;36.20;17.45;;;;;;;2.25;100.00;99222.69;5023537;28;20029;-76
2020/12/05 09:04:32;;;;;;;54.92;26.67;;;;;;;2.37;100.00;99220.22;5016512;28;20541;-76
2020/12/05 09:07:11;;;;;;;40.53;17.40;;;;;;;2.61;100.00;99222.47;5003831;28;20051;-76
2020/12/05 09:09:38;;;;;;;28.75;15.93;;;;;;;2.75;100.00;99233.16;5021409;28;20033;-75
2020/12/05 09:12:09;;;;;;;36.13;16.20;;;;;;;2.76;100.00;99226.91;5015347;28;20078;-76
2020/12/05 09:14:38;;;;;;;149.45;44.88;;;;;;;2.84;100.00;99220.22;5021674;28;20029;-76
2020/12/05 09:17:25;;;;;;;329.27;79.13;;;;;;;2.91;100.00;99220.72;5008610;28;20115;-78
2020/12/05 09:19:51;;;;;;;121.65;37.92;;;;;;;2.88;100.00;99220.06;5016009;28;20044;-76
2020/12/05 09:22:31;;;;;;;114.10;38.40;;;;;;;2.87;100.00;99221.84;5005170;28;20092;-77
2020/12/05 09:24:56;;;;;;;56.67;20.85;;;;;;;2.96;100.00;99220.50;5025102;28;20399;-78
2020/12/05 09:27:36;;;;;;;44.42;20.83;;;;;;;3.05;100.00;99230.56;4997074;28;20049;-76
2020/12/05 09:30:08;;;;;;;33.28;16.60;;;;;;;3.17;100.00;99238.66;5009322;28;20449;-76
2020/12/05 09:32:41;;;;;;;28.02;13.40;;;;;;;3.21;100.00;99234.88;5004169;28;20409;-76
2020/12/05 09:35:08;;;;;;;25.75;13.35;;;;;;;3.19;100.00;99230.63;5013841;28;20439;-77
2020/12/05 09:37:33;;;;;;;29.60;15.32;;;;;;;3.23;100.00;99235.66;5021090;28;20068;-76
2020/12/05 09:39:59;;;;;;;26.92;12.63;;;;;;;3.37;100.00;99241.94;5008851;28;20066;-77
2020/12/05 09:42:25;;;;;;;22.48;12.77;;;;;;;3.34;100.00;99242.97;5010893;28;20030;-75
2020/12/05 09:44:54;;;;;;;24.38;13.35;;;;;;;3.54;100.00;99247.13;5002027;28;20377;-77
2020/12/05 09:47:19;;;;;;;22.25;11.25;;;;;;;3.63;100.00;99257.19;5017106;28;20485;-76
2020/12/05 09:49:45;;;;;;;28.40;10.27;;;;;;;3.83;100.00;99263.94;5014819;28;20120;-77
2020/12/05 09:52:10;;;;;;;18.67;9.82;;;;;;;4.05;100.00;99270.53;5011741;28;20041;-76
2020/12/05 09:54:36;;;;;;;19.05;10.38;;;;;;;4.07;100.00;99271.28;5006206;28;20021;-76
2020/12/05 09:57:06;;;;;;;20.25;10.90;;;;;;;4.14;100.00;99258.47;5015715;28;20476;-75
2020/12/05 09:59:32;;;;;;;32.88;13.32;;;;;;;4.35;100.00;99251.00;5008525;28;20033;-77
2020/12/05 10:01:57;;;;;;;14.60;7.85;;;;;;;4.33;100.00;99236.97;4988030;28;20036;-78
2020/12/05 10:04:23;;;;;;;18.52;9.35;;;;;;;4.31;100.00;99228.25;4989419;28;20029;-75
2020/12/05 10:06:49;;;;;;;12.60;6.88;;;;;;;4.42;100.00;99231.09;4999231;28;20038;-76
2020/12/05 10:09:15;;;;;;;13.38;7.03;;;;;;;4.36;100.00;99231.47;5009532;28;20091;-76
2020/12/05 10:11:41;;;;;;;15.88;6.03;;;;;;;4.37;100.00;99251.78;5003315;28;20084;-76
2020/12/05 10:14:06;;;;;;;19.15;4.45;;;;;;;4.61;98.51;99252.88;5017126;28;20111;-76
2020/12/05 10:16:32;;;;;;;11.45;4.40;;;;;;;4.86;96.01;99279.63;5021520;28;20048;-76
2020/12/05 10:18:58;;;;;;;7.53;3.83;;;;;;;4.80;96.09;99282.66;5021162;28;20039;-76
2020/12/05 10:21:24;;;;;;;6.70;3.75;;;;;;;5.01;93.87;99282.22;5015232;28;20049;-76
2020/12/05 10:23:49;;;;;;;8.32;3.90;;;;;;;4.99;94.72;99277.03;5009441;28;20037;-75
2020/12/05 10:26:15;;;;;;;7.65;4.25;;;;;;;5.06;94.08;99285.47;5013166;28;20503;-76
2020/12/05 10:28:40;;;;;;;10.00;5.20;;;;;;;5.17;92.39;99286.47;5009117;28;20040;-76
2020/12/05 10:31:09;;;;;;;8.05;3.53;;;;;;;5.33;91.36;99278.31;4994603;28;20022;-76
2020/12/05 10:33:34;;;;;;;9.98;4.60;;;;;;;5.19;91.24;99273.06;5009355;28;20507;-76
2020/12/05 10:36:00;;;;;;;8.10;4.32;;;;;;;5.10;91.01;99281.66;4993281;28;20029;-76
2020/12/05 10:38:26;;;;;;;5.38;2.70;;;;;;;5.20;88.38;99288.06;4995062;28;20029;-77
2020/12/05 10:40:51;;;;;;;8.77;3.50;;;;;;;5.21;88.16;99284.44;5006194;28;20092;-76
2020/12/05 10:43:17;;;;;;;9.32;4.07;;;;;;;5.25;89.63;99276.16;4994183;28;20092;-77
2020/12/05 10:45:43;;;;;;;8.15;4.00;;;;;;;5.27;89.58;99278.72;4994788;28;20483;-75
2020/12/05 10:48:09;;;;;;;6.63;3.10;;;;;;;5.33;88.69;99280.13;5006623;28;20124;-76
2020/12/05 10:50:34;;;;;;;5.68;2.67;;;;;;;5.43;86.46;99286.56;4992818;28;20141;-76
2020/12/05 10:52:59;;;;;;;7.15;2.15;;;;;;;5.46;83.66;99289.03;5014193;28;20075;-76
2020/12/05 10:55:25;;;;;;;4.70;1.83;;;;;;;5.54;80.02;99302.69;5007252;28;20026;-76
2020/12/05 10:57:51;;;;;;;5.13;1.77;;;;;;;5.59;79.84;99304.06;4996232;28;20088;-77
2020/12/05 11:00:16;;;;;;;8.32;2.45;;;;;;;5.59;79.28;99296.09;5009899;28;20091;-76
2020/12/05 11:02:42;;;;;;;6.35;2.00;;;;;;;5.58;80.09;99293.53;5010823;28;20060;-75
2020/12/05 11:05:07;;;;;;;4.68;1.52;;;;;;;5.53;81.19;99296.50;5009178;28;20394;-75
2020/12/05 11:07:36;;;;;;;3.88;1.63;;;;;;;5.69;78.57;99280.34;4996105;28;20040;-76
2020/12/05 11:10:01;;;;;;;9.35;2.15;;;;;;;5.68;77.89;99278.63;4989970;28;20484;-76
2020/12/05 11:12:30;;;;;;;2.53;1.60;;;;;;;5.56;79.79;99269.66;4985866;28;20132;-76
2020/12/05 11:14:55;;;;;;;3.45;1.42;;;;;;;5.43;80.57;99276.75;4996216;28;20037;-76
2020/12/05 11:17:21;;;;;;;17.75;5.82;;;;;;;5.40;81.36;99290.28;5007863;28;20040;-76
2020/12/05 11:19:46;;;;;;;5.53;1.50;;;;;;;5.32;81.29;99303.22;4989493;28;20507;-76
2020/12/05 11:22:12;;;;;;;6.03;2.08;;;;;;;5.40;80.28;99306.25;5006600;28;20045;-76
2020/12/05 11:24:37;;;;;;;2.75;1.85;;;;;;;5.56;78.71;99306.94;5017303;28;20033;-76
2020/12/05 11:27:03;;;;;;;4.05;1.70;;;;;;;5.63;79.39;99307.38;4994311;28;20104;-77
2020/12/05 11:29:31;;;;;;;4.78;1.80;;;;;;;5.63;80.12;99300.25;4988585;28;20029;-76
2020/12/05 11:31:57;;;;;;;2.95;1.65;;;;;;;5.75;77.23;99305.69;5018043;28;20065;-77